Time;durP1;ratioP1;P1;durP2;ratioP2;P2;SDS_P1;SDS_P2;PMS_P1;PMS_P2;Temp;Humidity;BMP_temperature;BMP_pressure;BME280_temperature;BME280_humidity;BME280_pressure;Samples;Min_cycle;Max_cycle;Signal;HPM_P1;HPM_P2
2022/06/07 00:00:31;;;;;;;4.10;1.50;;;18.30;90.70;;;17.53;63.26;97332.88;5051860;28;20401;-76
2022/06/07 00:02:57;;;;;;;4.00;1.35;;;18.20;90.00;;;17.52;62.75;97323.25;5034166;28;20416;-76
2022/06/07 00:05:24;;;;;;;1.57;1.27;;;18.20;89.20;;;17.49;62.09;97329.22;5051718;28;20398;-77
2022/06/07 00:07:51;;;;;;;3.45;1.40;;;18.20;88.90;;;17.46;64.12;97326.31;5051825;28;20397;-76
2022/06/07 00:10:17;;;;;;;3.60;1.20;;;18.20;90.40;;;17.44;64.33;97328.53;5051616;28;20398;-77
2022/06/07 00:12:43;;;;;;;3.58;1.45;;;18.20;90.70;;;17.42;64.75;97324.25;5051882;28;20810;-76
2022/06/07 00:15:10;;;;;;;2.58;1.42;;;18.20;91.30;;;17.40;65.15;97323.75;5051859;28;20440;-77
2022/06/07 00:17:37;;;;;;;2.47;1.20;;;18.20;91.60;;;17.43;62.80;97325.03;5051780;28;20401;-75
2022/06/07 00:20:05;;;;;;;2.28;1.38;;;18.20;90.10;;;17.38;63.79;97322.44;5050787;28;20393;-76
2022/06/07 00:22:32;;;;;;;3.20;1.50;;;18.10;90.50;;;17.36;64.90;97330.00;5051575;28;20401;-75
2022/06/07 00:24:58;;;;;;;1.85;1.33;;;18.10;91.40;;;17.36;63.21;97336.16;5051419;28;20489;-75
2022/06/07 00:27:24;;;;;;;2.08;1.30;;;18.10;90.20;;;17.36;63.54;97338.03;5051495;28;20406;-75
2022/06/07 00:29:50;;;;;;;8.95;1.58;;;18.10;90.40;;;17.32;64.36;97334.34;5051029;28;20488;-75
2022/06/07 00:32:19;;;;;;;1.43;1.20;;;18.00;91.00;;;17.28;65.16;97334.16;5051511;28;20528;-75
2022/06/07 00:34:45;;;;;;;2.30;1.40;;;18.10;91.70;;;17.29;65.28;97337.63;5051508;28;20397;-75
2022/06/07 00:37:12;;;;;;;1.90;1.25;;;18.00;91.90;;;17.25;65.81;97337.41;5051324;28;20471;-76
2022/06/07 00:39:39;;;;;;;6.07;1.40;;;18.00;92.10;;;17.22;66.66;97335.31;5033262;28;20887;-75
2022/06/07 00:42:06;;;;;;;2.42;1.40;;;18.00;93.30;;;17.19;67.10;97341.25;5051218;28;20546;-75
2022/06/07 00:44:37;;;;;;;4.40;1.43;;;18.00;93.80;;;17.17;66.90;97339.97;5051363;28;20804;-75
2022/06/07 00:47:11;;;;;;;1.95;1.30;;;17.90;93.90;;;17.07;69.16;97338.25;5051173;28;20382;-74
2022/06/07 00:49:44;;;;;;;1.60;1.30;;;17.90;95.90;;;17.01;69.41;97337.53;5050894;28;20878;-75
2022/06/07 00:52:10;;;;;;;4.47;1.30;;;17.80;96.50;;;16.98;69.19;97340.03;5051009;28;20417;-73
2022/06/07 00:54:36;;;;;;;1.95;1.20;;;17.80;96.70;;;16.97;67.97;97339.22;5033210;28;20832;-76
2022/06/07 00:57:05;;;;;;;2.40;1.30;;;17.70;95.70;;;16.97;67.08;97344.56;5050896;28;20420;-75
2022/06/07 00:59:32;;;;;;;1.77;1.38;;;17.70;95.10;;;16.94;68.35;97344.34;5050744;28;20890;-75
2022/06/07 01:01:58;;;;;;;1.40;1.23;;;17.70;95.70;;;16.93;68.58;97340.09;5051326;28;20397;-76
2022/06/07 01:04:27;;;;;;;3.35;1.55;;;17.70;96.10;;;16.91;73.63;97347.63;5050988;28;20401;-76
2022/06/07 01:12:24;;;;;;;6.93;1.77;;;17.40;99.90;;;16.56;79.96;97336.34;5045924;28;20448;-76
2022/06/07 01:14:50;;;;;;;3.17;1.88;;;17.40;99.90;;;16.45;80.63;97334.13;5032239;28;20490;-76
2022/06/07 01:17:17;;;;;;;4.93;1.77;;;17.20;99.90;;;16.37;81.79;97332.91;5050268;28;20417;-75
2022/06/07 01:19:43;;;;;;;3.55;1.80;;;17.20;99.90;;;16.32;82.64;97329.50;5050245;28;20459;-76
2022/06/07 01:22:11;;;;;;;4.53;1.83;;;17.10;99.90;;;16.30;83.58;97331.69;5050647;28;20402;-76
2022/06/07 01:24:37;;;;;;;5.40;2.30;;;17.10;99.90;;;16.23;84.08;97332.84;5050621;28;20398;-76
2022/06/07 01:27:06;;;;;;;8.07;2.22;;;17.10;99.90;;;16.17;85.02;97331.31;5050591;28;20401;-76
2022/06/07 01:29:32;;;;;;;6.75;2.00;;;17.00;99.90;;;16.08;85.67;97329.59;5032396;28;20450;-76
2022/06/07 01:31:58;;;;;;;3.75;2.25;;;16.90;99.90;;;15.98;86.34;97341.19;5050446;28;20878;-76
2022/06/07 01:34:25;;;;;;;4.55;2.20;;;16.80;99.90;;;15.90;87.19;97336.47;5050452;28;20402;-77
2022/06/07 01:36:54;;;;;;;3.35;2.30;;;16.70;99.90;;;15.83;87.98;97336.03;5050237;28;20409;-76
2022/06/07 01:42:06;;;;;;;5.00;2.35;;;16.60;99.90;;;15.77;89.80;97329.16;5050391;28;20412;-76
2022/06/07 01:44:38;;;;;;;8.20;2.28;;;16.60;99.90;;;15.74;88.56;97330.53;5032399;28;20416;-76
2022/06/07 01:47:07;;;;;;;3.50;2.40;;;16.60;99.90;;;15.64;90.04;97335.19;5050279;28;20401;-75
2022/06/07 01:49:34;;;;;;;3.13;2.35;;;16.50;99.90;;;15.54;90.51;97329.97;5049950;28;20494;-76
2022/06/07 01:52:00;;;;;;;6.15;2.80;;;16.40;99.90;;;15.43;90.69;97318.56;5050394;28;20479;-76
2022/06/07 01:54:27;;;;;;;3.22;2.92;;;16.30;99.90;;;15.36;91.91;97318.91;5050224;28;20412;-76
2022/06/07 01:56:54;;;;;;;6.85;3.40;;;16.20;99.90;;;15.33;93.23;97324.03;5049337;28;20421;-77
2022/06/07 01:59:20;;;;;;;9.63;3.50;;;16.20;99.90;;;15.25;93.00;97327.31;5049617;28;20405;-75
2022/06/07 02:01:47;;;;;;;5.75;3.80;;;16.10;99.90;;;15.21;94.30;97318.28;5049907;28;20880;-75
2022/06/07 02:04:13;;;;;;;7.47;4.10;;;16.10;99.90;;;15.13;94.60;97316.22;5030272;28;20414;-76
2022/06/07 02:06:39;;;;;;;8.53;4.00;;;16.00;99.90;;;15.10;95.36;97317.59;5013450;28;20449;-76
2022/06/07 02:09:07;;;;;;;7.93;4.65;;;16.00;99.90;;;15.02;96.09;97320.88;5049506;28;20409;-76
2022/06/07 02:11:37;;;;;;;5.93;5.00;;;15.90;99.90;;;14.98;96.04;97312.63;5032240;28;20405;-76
2022/06/07 02:14:04;;;;;;;7.93;5.70;;;15.80;99.90;;;14.99;96.84;97314.22;5050056;28;20413;-77
2022/06/07 02:16:30;;;;;;;9.95;6.00;;;15.80;99.90;;;15.03;98.22;97306.47;5049835;28;20421;-76
2022/06/07 02:18:56;;;;;;;11.80;7.10;;;15.90;99.90;;;15.04;98.75;97302.69;5049490;28;20492;-76
2022/06/07 02:21:24;;;;;;;9.50;6.88;;;15.90;99.90;;;15.01;99.36;97304.06;5050049;28;20458;-76
2022/06/07 02:23:50;;;;;;;10.50;7.03;;;15.90;99.90;;;14.98;99.92;97296.63;5049997;28;20405;-76
2022/06/07 02:26:21;;;;;;;11.27;7.55;;;15.80;99.90;;;15.05;99.90;97288.31;5049909;28;20939;-75
2022/06/07 02:28:55;;;;;;;14.70;7.50;;;15.80;99.90;;;15.00;100.00;97296.34;5052971;28;20425;-76
2022/06/07 02:31:24;;;;;;;12.50;7.77;;;15.80;99.90;;;14.92;100.00;97288.97;5053984;28;20476;-76
2022/06/07 02:33:51;;;;;;;12.48;7.47;;;15.80;99.90;;;14.92;100.00;97292.44;5060324;28;20416;-76
2022/06/07 02:36:17;;;;;;;12.43;7.80;;;15.70;99.90;;;14.86;100.00;97287.44;5053792;28;20417;-76
2022/06/07 02:38:44;;;;;;;15.60;8.13;;;15.70;99.90;;;14.87;100.00;97284.50;5053186;28;20902;-77
2022/06/07 02:41:17;;;;;;;14.30;8.55;;;15.70;99.90;;;14.91;100.00;97287.38;5053464;28;20405;-76
2022/06/07 02:43:44;;;;;;;15.27;8.38;;;15.70;99.90;;;14.93;100.00;97282.56;5053648;28;20433;-76
2022/06/07 02:46:11;;;;;;;12.90;8.13;;;15.80;99.90;;;14.91;100.00;97287.38;5052766;28;20406;-77
2022/06/07 02:48:37;;;;;;;12.70;8.18;;;15.70;99.90;;;14.91;100.00;97277.50;5052979;28;20484;-76
2022/06/07 02:51:04;;;;;;;11.82;8.02;;;15.70;99.90;;;14.90;100.00;97267.91;5053312;28;20433;-76
2022/06/07 02:53:30;;;;;;;15.18;7.75;;;15.70;99.90;;;14.91;100.00;97260.72;5035337;28;20775;-75
2022/06/07 02:55:56;;;;;;;11.57;7.45;;;15.70;99.90;;;14.90;100.00;97262.59;5053193;28;20409;-76
2022/06/07 02:58:22;;;;;;;12.23;7.68;;;15.70;99.90;;;14.90;100.00;97264.47;5035074;28;20416;-76
2022/06/07 03:00:48;;;;;;;11.98;8.18;;;15.70;99.90;;;14.90;100.00;97264.47;5053133;28;20452;-76
2022/06/07 03:03:19;;;;;;;11.88;7.15;;;15.70;99.90;;;14.91;100.00;97260.72;5053162;28;20401;-76
2022/06/07 03:05:45;;;;;;;12.07;6.45;;;15.70;99.90;;;14.86;100.00;97269.56;5053108;28;20408;-76
2022/06/07 03:08:14;;;;;;;11.57;6.05;;;15.70;99.90;;;14.85;100.00;97265.31;5034787;28;20759;-77
2022/06/07 03:10:40;;;;;;;7.85;5.80;;;15.70;99.90;;;14.85;100.00;97269.84;5035054;28;20873;-76
2022/06/07 03:13:06;;;;;;;10.40;5.05;;;15.70;99.90;;;14.86;100.00;97277.56;5052997;28;20441;-76
2022/06/07 03:15:32;;;;;;;7.22;4.90;;;15.70;99.90;;;14.82;100.00;97276.53;5034962;28;20930;-76
2022/06/07 03:17:58;;;;;;;6.80;4.47;;;15.60;99.90;;;14.78;100.00;97275.50;5034847;28;20420;-76
2022/06/07 03:20:26;;;;;;;7.35;4.20;;;15.60;99.90;;;14.77;100.00;97279.25;5052501;28;20401;-76
2022/06/07 03:22:52;;;;;;;6.73;4.37;;;15.60;99.90;;;14.78;100.00;97280.03;5052853;28;20405;-76
2022/06/07 03:25:18;;;;;;;6.88;3.25;;;15.60;99.90;;;14.75;100.00;97275.25;5052997;28;20413;-75
2022/06/07 03:27:44;;;;;;;3.55;3.15;;;15.50;99.90;;;14.71;100.00;97275.03;5052822;28;20410;-75
2022/06/07 03:30:12;;;;;;;4.68;2.80;;;15.50;99.90;;;14.70;100.00;97279.56;5052263;28;20397;-76
2022/06/07 03:32:38;;;;;;;4.55;2.88;;;15.40;99.90;;;14.65;100.00;97268.16;5052111;28;20512;-76
2022/06/07 03:35:06;;;;;;;3.40;2.60;;;15.40;99.90;;;14.65;100.00;97274.28;5046905;28;20940;-76
2022/06/07 03:37:34;;;;;;;3.30;2.30;;;15.40;99.90;;;14.64;100.00;97266.56;5052308;28;20423;-76
2022/06/07 03:40:00;;;;;;;4.50;2.20;;;15.50;99.90;;;14.68;100.00;97264.94;5046976;28;20418;-76
2022/06/07 03:42:26;;;;;;;2.67;2.10;;;15.50;99.90;;;14.68;100.00;97256.94;5052499;28;20917;-76
2022/06/07 03:44:52;;;;;;;3.28;1.85;;;15.50;99.90;;;14.68;100.00;97260.38;5052511;28;20452;-76
2022/06/07 03:47:18;;;;;;;3.60;2.15;;;15.50;99.90;;;14.72;100.00;97271.31;5052452;28;20496;-76
2022/06/07 03:49:46;;;;;;;2.95;2.00;;;15.60;99.90;;;14.79;100.00;97263.78;5051917;28;20519;-76
2022/06/07 03:52:12;;;;;;;2.70;2.00;;;15.60;99.90;;;14.79;100.00;97273.63;5032363;28;20399;-76
2022/06/07 03:54:40;;;;;;;3.65;1.80;;;15.60;99.90;;;14.78;100.00;97269.38;5032365;28;20426;-76
2022/06/07 03:57:07;;;;;;;2.00;1.55;;;15.60;99.90;;;14.77;100.00;97271.25;5032189;28;20954;-76
2022/06/07 03:59:34;;;;;;;2.45;1.58;;;15.60;99.90;;;14.80;100.00;97264.56;5032109;28;20815;-75
2022/06/07 04:02:00;;;;;;;2.58;1.67;;;15.60;99.90;;;14.82;100.00;97260.53;5046804;28;20458;-76
2022/06/07 04:04:26;;;;;;;2.47;2.10;;;15.60;99.90;;;14.86;100.00;97272.22;5051969;28;20405;-75
2022/06/07 04:09:40;;;;;;;3.05;2.03;;;15.70;99.90;;;14.90;100.00;97269.78;5051735;28;20447;-75
2022/06/07 04:12:08;;;;;;;4.25;1.70;;;15.70;99.90;;;14.87;100.00;97265.84;5051661;28;20811;-77
2022/06/07 04:14:36;;;;;;;4.03;2.10;;;15.70;99.90;;;14.90;100.00;97273.25;5051839;28;20397;-75
2022/06/07 04:17:02;;;;;;;3.05;1.95;;;15.70;99.90;;;14.90;100.00;97275.91;5051592;28;20488;-76
2022/06/07 04:19:28;;;;;;;2.95;1.85;;;15.70;99.90;;;14.90;100.00;97269.78;5051552;28;20417;-75
2022/06/07 04:21:54;;;;;;;3.33;2.10;;;15.70;99.90;;;14.94;100.00;97276.97;5042945;28;20409;-76
2022/06/07 04:24:20;;;;;;;2.05;1.85;;;15.70;99.90;;;14.96;100.00;97280.13;5051640;28;20467;-76
2022/06/07 04:26:48;;;;;;;4.00;1.80;;;15.80;99.90;;;14.96;100.00;97277.44;5051332;28;20875;-76
2022/06/07 04:29:14;;;;;;;2.50;1.80;;;15.80;99.90;;;14.97;100.00;97286.25;5043319;28;20413;-76
2022/06/07 04:31:40;;;;;;;3.20;2.00;;;15.80;99.90;;;14.99;100.00;97292.09;5033424;28;20402;-76
2022/06/07 04:34:07;;;;;;;3.55;1.90;;;15.80;99.90;;;15.01;100.00;97285.41;5051399;28;20967;-75
2022/06/07 04:36:33;;;;;;;4.10;1.80;;;15.80;99.90;;;15.01;100.00;97282.75;5051180;28;20427;-76
2022/06/07 04:39:03;;;;;;;2.10;1.70;;;15.80;99.90;;;15.02;100.00;97289.69;5033057;28;20436;-76
2022/06/07 04:41:29;;;;;;;2.85;1.80;;;15.80;99.90;;;15.03;100.00;97287.81;5051248;28;20879;-76
2022/06/07 04:43:57;;;;;;;3.70;1.60;;;15.80;99.90;;;15.04;100.00;97292.84;5051423;28;20409;-76
2022/06/07 04:46:24;;;;;;;3.33;1.80;;;15.80;99.90;;;15.05;100.00;97288.31;5051116;28;20478;-76
2022/06/07 04:48:51;;;;;;;3.22;1.80;;;15.90;99.90;;;15.06;100.00;97279.22;5050791;28;20424;-76
2022/06/07 04:51:20;;;;;;;3.08;1.80;;;15.90;99.90;;;15.05;100.00;97286.44;5050487;28;20394;-75
2022/06/07 04:53:48;;;;;;;6.88;1.90;;;15.90;99.90;;;15.09;100.00;97292.81;5051144;28;20883;-76
2022/06/07 04:56:17;;;;;;;5.10;1.98;;;15.80;99.90;;;15.14;100.00;97289.28;5051007;28;20413;-75
2022/06/07 04:58:43;;;;;;;1.90;1.60;;;15.90;99.90;;;15.17;100.00;97294.06;5050716;28;20484;-75
2022/06/07 05:01:12;;;;;;;2.35;1.70;;;15.90;99.90;;;15.19;100.00;97286.56;5051015;28;20458;-76
2022/06/07 05:03:38;;;;;;;4.20;1.70;;;16.00;99.90;;;15.22;100.00;97302.00;5050984;28;20436;-76
2022/06/07 05:06:17;;;;;;;2.47;1.67;;;16.00;99.90;;;15.21;100.00;97303.06;5050856;28;20505;-77
2022/06/07 05:08:43;;;;;;;3.85;1.55;;;16.00;99.90;;;15.22;99.88;97312.66;5049965;28;20417;-75
2022/06/07 05:11:09;;;;;;;3.17;1.90;;;16.00;99.90;;;15.26;100.00;97315.56;5050563;28;20397;-76
2022/06/07 05:13:36;;;;;;;3.78;1.48;;;16.00;99.90;;;15.22;99.43;97317.19;5050757;28;20492;-76
2022/06/07 05:16:03;;;;;;;1.85;1.52;;;16.00;99.90;;;15.25;98.79;97325.44;5050039;28;20482;-76
2022/06/07 05:18:31;;;;;;;3.03;1.42;;;16.00;99.90;;;15.23;97.85;97319.59;4995655;23;20481;-78
2022/06/07 05:20:57;;;;;;;2.25;1.70;;;16.00;99.90;;;15.23;97.80;97324.91;4968964;28;20747;-78
2022/06/07 05:23:23;;;;;;;3.53;1.50;;;16.10;99.90;;;15.18;93.59;97324.19;4961610;28;20494;-78
2022/06/07 05:25:54;;;;;;;3.17;1.67;;;15.90;99.90;;;15.17;91.88;97323.38;4988188;28;20751;-77
2022/06/07 05:28:20;;;;;;;4.57;1.58;;;15.90;99.90;;;15.22;93.21;97314.53;4997868;28;20400;-78
2022/06/07 05:30:46;;;;;;;4.15;1.50;;;16.00;99.90;;;15.29;92.50;97323.00;4969018;28;20415;-78
2022/06/07 05:33:12;;;;;;;4.40;1.50;;;16.00;99.90;;;15.39;93.40;97326.38;4976454;28;20754;-78
2022/06/07 05:35:40;;;;;;;2.97;1.55;;;16.10;99.90;;;15.48;94.22;97330.00;4987533;28;20408;-77
2022/06/07 05:38:06;;;;;;;4.68;1.60;;;16.20;99.90;;;15.49;93.76;97331.56;4968681;28;20427;-77
2022/06/07 05:40:32;;;;;;;2.70;1.50;;;16.30;99.90;;;15.55;92.66;97336.91;4969115;28;20580;-77
2022/06/07 05:42:58;;;;;;;4.80;1.48;;;16.30;99.90;;;15.59;92.65;97328.03;4969170;28;20423;-77
2022/06/07 05:45:23;;;;;;;2.70;1.50;;;16.40;99.90;;;15.61;90.50;97325.09;4969362;28;20412;-77
2022/06/07 05:47:49;;;;;;;2.33;1.45;;;16.30;99.90;;;15.68;90.50;97329.00;4969353;28;20417;-77
2022/06/07 05:50:15;;;;;;;4.30;1.70;;;16.40;99.90;;;15.77;92.39;97327.28;4968785;28;20416;-77
2022/06/07 05:52:43;;;;;;;3.65;1.55;;;16.50;99.90;;;15.82;90.27;97339.78;4962461;28;20426;-77
2022/06/07 05:55:09;;;;;;;2.00;1.30;;;16.50;99.90;;;15.87;90.15;97332.50;4978431;28;20759;-78
2022/06/07 05:57:35;;;;;;;2.47;1.23;;;16.60;99.90;;;15.92;89.17;97333.53;4986956;28;20906;-78
2022/06/07 06:00:03;;;;;;;3.65;1.58;;;16.70;99.90;;;15.93;86.33;97341.25;4960148;28;20410;-78
2022/06/07 06:02:29;;;;;;;1.55;1.35;;;16.70;99.90;;;15.92;83.05;97328.19;4990013;28;20443;-77
2022/06/07 06:04:55;;;;;;;2.95;1.42;;;16.60;99.90;;;15.95;82.91;97339.06;5015756;28;20495;-76
2022/06/07 06:07:21;;;;;;;2.53;1.50;;;16.70;99.90;;;16.00;82.56;97340.91;4954092;28;20764;-76
2022/06/07 06:12:33;;;;;;;1.85;1.35;;;16.80;99.90;;;16.19;82.22;97347.03;4979321;28;20464;-77
2022/06/07 06:14:59;;;;;;;2.15;1.52;;;16.90;99.90;;;16.27;80.82;97343.72;4952822;29;20900;-78
2022/06/07 06:17:25;;;;;;;3.50;1.50;;;17.00;99.90;;;16.36;81.18;97346.56;4955652;28;20432;-76
2022/06/07 06:19:51;;;;;;;2.35;1.20;;;17.10;99.90;;;16.38;78.97;97345.19;4953659;28;20421;-76
2022/06/07 06:22:17;;;;;;;2.90;1.35;;;17.10;99.90;;;16.44;80.46;97329.88;4957123;28;20496;-76
2022/06/07 06:24:43;;;;;;;2.50;1.38;;;17.20;99.90;;;16.43;78.21;97333.63;4953594;28;20414;-77
2022/06/07 06:27:10;;;;;;;1.73;1.10;;;17.10;99.90;;;16.42;77.33;97342.72;4940869;28;20446;-79
2022/06/07 06:29:36;;;;;;;2.30;1.20;;;17.10;99.90;;;16.41;78.46;97343.81;4948584;29;20398;-77
2022/06/07 06:32:03;;;;;;;2.65;1.38;;;17.10;99.90;;;16.39;77.55;97343.31;4952244;29;20412;-77
2022/06/07 06:34:29;;;;;;;2.80;1.57;;;17.10;99.90;;;16.39;78.95;97340.66;4989608;28;20977;-78
2022/06/07 06:36:56;;;;;;;3.60;1.13;;;17.10;99.90;;;16.40;78.99;97335.00;5033227;28;20461;-77
2022/06/07 06:39:22;;;;;;;2.70;1.35;;;17.10;99.90;;;16.38;76.89;97339.06;4943054;29;20415;-77
2022/06/07 06:41:48;;;;;;;2.85;1.63;;;17.10;99.90;;;16.39;76.91;97346.75;4945060;28;20414;-77
2022/06/07 06:44:16;;;;;;;3.58;1.23;;;17.10;99.90;;;16.36;75.91;97347.34;4952675;29;20417;-78
2022/06/07 06:46:46;;;;;;;3.15;1.30;;;17.10;99.90;;;16.36;75.69;97352.69;4952391;29;20409;-78
2022/06/07 06:49:14;;;;;;;3.65;1.10;;;17.10;99.90;;;16.34;74.40;97344.16;4944863;29;20408;-79
2022/06/07 06:51:42;;;;;;;5.50;1.45;;;17.10;99.90;;;16.35;73.61;97348.44;4933214;29;20588;-77
2022/06/07 06:54:11;;;;;;;1.25;1.15;;;17.10;99.90;;;16.43;74.83;97357.69;4933108;28;20410;-77
2022/06/07 06:56:38;;;;;;;4.43;1.38;;;17.10;99.90;;;16.49;73.60;97349.28;4933166;28;20423;-77
2022/06/07 06:59:04;;;;;;;4.22;1.42;;;17.20;99.90;;;16.62;73.42;97345.13;4932900;28;20893;-76
2022/06/07 07:01:34;;;;;;;2.73;1.50;;;17.30;99.90;;;16.74;73.20;97345.47;4933218;28;20575;-76
2022/06/07 07:04:03;;;;;;;2.95;1.20;;;17.40;99.90;;;16.95;73.41;97354.75;4939080;28;20525;-76
2022/06/07 07:06:30;;;;;;;1.65;1.13;;;17.60;99.90;;;17.10;71.11;97337.66;4941715;28;20421;-75
2022/06/07 07:08:57;;;;;;;2.05;1.15;;;17.80;99.90;;;17.23;69.89;97339.56;4950699;28;20407;-76
2022/06/07 07:11:28;;;;;;;1.90;1.00;;;17.90;99.90;;;17.32;68.32;97345.03;4937563;28;20433;-74
2022/06/07 07:13:57;;;;;;;1.83;0.90;;;18.00;99.80;;;17.42;68.26;97342.19;4941384;28;20413;-75
2022/06/07 07:16:26;;;;;;;3.58;1.27;;;18.10;99.10;;;17.49;68.31;97344.47;4942207;28;20455;-78
2022/06/07 07:18:53;;;;;;;1.77;1.00;;;18.10;99.70;;;17.45;67.67;97341.56;4940654;28;20437;-75
2022/06/07 07:21:23;;;;;;;2.20;1.10;;;18.20;98.20;;;17.50;68.92;97333.47;4954299;28;20409;-75
2022/06/07 07:23:50;;;;;;;2.45;1.10;;;18.20;99.90;;;17.49;67.74;97337.25;4954891;28;20648;-76
2022/06/07 07:26:20;;;;;;;2.42;1.05;;;18.20;98.40;;;17.52;67.05;97330.47;4963526;28;20408;-75
2022/06/07 07:28:46;;;;;;;3.65;1.10;;;18.20;97.30;;;17.56;67.09;97331.50;4950520;28;20410;-75
2022/06/07 07:31:15;;;;;;;5.10;1.10;;;18.20;96.90;;;17.66;67.12;97328.66;4940725;28;20950;-75
2022/06/07 07:33:42;;;;;;;5.38;1.10;;;18.30;97.20;;;17.88;67.87;97330.63;4945476;28;20445;-77
2022/06/07 07:36:10;;;;;;;2.28;1.00;;;18.50;98.20;;;18.04;64.94;97330.00;4953239;28;20462;-74
2022/06/07 07:38:36;;;;;;;1.43;0.93;;;18.70;94.50;;;18.31;65.79;97326.47;4952117;28;20471;-74
2022/06/07 07:41:04;;;;;;;4.43;0.95;;;18.90;95.70;;;18.43;64.80;97336.66;4956685;28;20422;-74
2022/06/07 07:43:30;;;;;;;4.47;1.10;;;19.00;94.80;;;18.49;63.16;97343.50;4987901;28;20430;-74
2022/06/07 07:45:57;;;;;;;3.97;1.05;;;19.10;91.90;;;18.45;59.67;97335.28;4977730;28;20413;-76
2022/06/07 07:48:24;;;;;;;2.08;0.90;;;19.10;86.50;;;18.60;61.67;97320.75;4991265;28;20456;-75
2022/06/07 07:50:51;;;;;;;2.33;0.80;;;19.20;90.20;;;18.65;60.98;97330.56;4999289;28;20476;-74
2022/06/07 07:53:19;;;;;;;2.53;0.98;;;19.20;88.30;;;18.69;59.73;97326.97;4982227;28;20910;-75
2022/06/07 07:55:47;;;;;;;1.90;0.80;;;19.30;85.60;;;18.72;59.67;97331.72;4966928;28;20458;-74
2022/06/07 07:58:14;;;;;;;3.60;1.00;;;19.40;85.90;;;18.77;59.34;97326.25;4948774;28;20428;-74
2022/06/07 08:00:42;;;;;;;2.53;0.85;;;19.40;84.80;;;18.82;59.37;97328.00;4992814;28;20490;-74
2022/06/07 08:03:08;;;;;;;1.50;0.80;;;19.40;84.40;;;18.93;61.04;97327.47;4971123;28;20444;-75
2022/06/07 08:05:34;;;;;;;2.53;1.00;;;19.60;87.70;;;19.02;60.04;97324.03;4969541;28;20424;-75
2022/06/07 08:08:04;;;;;;;2.75;0.90;;;19.70;85.40;;;19.27;60.58;97321.50;4952270;28;20772;-74
2022/06/07 08:10:32;;;;;;;1.63;0.80;;;19.80;87.10;;;19.42;57.59;97319.50;4969621;28;20949;-75
2022/06/07 08:13:00;;;;;;;2.10;1.10;;;20.00;81.00;;;19.46;55.77;97323.97;4969574;28;20404;-76
2022/06/07 08:15:29;;;;;;;2.60;1.00;;;20.10;77.40;;;19.49;56.58;97317.97;4969788;28;20490;-75
2022/06/07 08:17:55;;;;;;;4.93;1.05;;;20.10;78.50;;;19.49;56.28;97320.66;4969869;28;20979;-75
2022/06/07 08:20:22;;;;;;;1.45;0.70;;;20.10;78.00;;;19.53;56.66;97318.97;4969833;28;20415;-75
2022/06/07 08:22:49;;;;;;;1.23;0.85;;;20.10;78.60;;;19.69;57.75;97312.06;4970069;28;20414;-75
2022/06/07 08:25:16;;;;;;;1.60;0.80;;;20.20;80.40;;;19.84;58.29;97315.44;4968815;28;20777;-74
2022/06/07 08:27:46;;;;;;;1.17;0.90;;;20.40;81.20;;;19.84;55.92;97316.22;4952809;28;20607;-76
2022/06/07 08:30:14;;;;;;;1.63;0.80;;;20.50;77.10;;;19.71;54.61;97317.91;4969766;28;20447;-76
2022/06/07 08:32:41;;;;;;;1.30;0.70;;;20.40;74.60;;;19.66;56.48;97320.75;4970095;28;20423;-75
2022/06/07 08:37:56;;;;;;;1.20;0.80;;;20.10;76.30;;;19.40;56.81;97321.69;4969821;28;20501;-76
2022/06/07 08:40:30;;;;;;;1.05;0.75;;;20.00;77.50;;;19.45;58.96;97319.69;4969528;28;20420;-76
2022/06/07 08:43:05;;;;;;;2.40;1.00;;;20.00;80.80;;;19.47;58.42;97314.03;4969968;28;20408;-76
2022/06/07 08:45:37;;;;;;;1.60;0.80;;;20.10;80.50;;;19.51;59.11;97315.00;4969843;28;20408;-76
2022/06/07 08:48:09;;;;;;;4.75;0.90;;;20.20;81.90;;;19.45;58.52;97308.16;4969843;28;20401;-75
2022/06/07 08:50:44;;;;;;;2.10;0.90;;;20.10;80.30;;;19.35;58.03;97311.91;4969910;28;20415;-76
2022/06/07 08:53:16;;;;;;;3.20;0.90;;;20.00;80.10;;;19.34;57.44;97313.00;4969962;28;20886;-76
2022/06/07 08:55:47;;;;;;;2.25;1.00;;;20.00;79.00;;;19.49;58.61;97309.13;4970026;28;20435;-76
2022/06/07 08:58:22;;;;;;;2.10;0.95;;;20.10;81.10;;;19.64;56.20;97314.88;4969770;28;20481;-75
2022/06/07 09:00:51;;;;;;;2.30;0.82;;;20.30;77.70;;;19.71;54.85;97304.47;4969519;28;20474;-76
2022/06/07 09:03:36;;;;;;;1.90;0.95;;;20.30;75.00;;;19.85;54.39;97304.34;4969820;28;20959;-75
2022/06/07 09:06:05;;;;;;;1.50;0.83;;;20.40;74.50;;;19.96;53.31;97292.22;4969847;28;20408;-76
2022/06/07 09:08:38;;;;;;;1.65;0.80;;;20.50;72.40;;;20.14;54.74;97298.41;4969528;28;20419;-76
2022/06/07 09:13:55;;;;;;;1.53;0.87;;;20.80;72.90;;;20.62;54.32;97292.91;4969929;28;20407;-76
2022/06/07 09:16:21;;;;;;;1.70;0.90;;;21.10;74.10;;;20.76;52.82;97288.13;4969767;28;20454;-76
2022/06/07 09:18:50;;;;;;;2.55;0.90;;;21.30;71.70;;;20.84;52.43;97281.97;4951736;28;20759;-76
2022/06/07 09:21:28;;;;;;;1.00;0.70;;;21.40;70.80;;;20.74;52.51;97284.22;4969610;28;20412;-76
2022/06/07 09:23:56;;;;;;;1.75;0.80;;;21.30;70.40;;;20.46;51.94;97284.53;4969599;28;20413;-76
2022/06/07 09:26:27;;;;;;;2.23;0.90;;;21.10;69.30;;;20.16;51.94;97276.59;4969304;28;20430;-76
2022/06/07 09:29:15;;;;;;;2.17;0.90;;;20.80;69.50;;;19.89;54.52;97274.97;4968999;28;20924;-76
2022/06/07 09:31:44;;;;;;;2.25;0.90;;;20.60;72.50;;;19.56;51.94;97270.00;4969673;28;20496;-74
2022/06/07 09:34:19;;;;;;;0.70;0.70;;;20.20;68.70;;;19.50;54.65;97271.25;4969530;28;20480;-75
2022/06/07 09:36:54;;;;;;;1.02;0.68;;;20.10;73.10;;;19.76;57.77;97265.16;4968658;28;20464;-75
2022/06/07 09:39:29;;;;;;;1.05;0.80;;;20.30;77.80;;;20.23;59.32;97258.88;4968930;28;20904;-75
2022/06/07 09:42:11;;;;;;;2.80;0.90;;;20.70;81.00;;;20.53;52.28;97261.75;4969567;28;20482;-75
2022/06/07 09:44:54;;;;;;;0.57;0.57;;;21.00;69.90;;;20.97;52.98;97258.69;4969120;28;20420;-75
2022/06/07 09:47:27;;;;;;;1.20;0.60;;;21.40;72.10;;;21.13;51.26;97261.63;4968810;28;20507;-75
2022/06/07 09:49:58;;;;;;;0.73;0.65;;;21.70;69.20;;;21.11;51.75;97261.97;4968922;28;20439;-75
2022/06/07 09:52:27;;;;;;;1.15;0.68;;;21.70;69.50;;;20.82;48.19;97259.94;4969109;28;20412;-75
2022/06/07 09:54:59;;;;;;;3.20;0.70;;;21.50;64.30;;;20.67;49.34;97267.75;4968869;28;20408;-76
2022/06/07 09:57:36;;;;;;;1.42;0.70;;;21.30;66.10;;;20.46;49.55;97270.28;4968943;28;20432;-77
2022/06/07 10:00:19;;;;;;;1.65;0.80;;;21.10;66.50;;;20.35;50.82;97263.66;4968515;28;20405;-76
2022/06/07 10:03:19;;;;;;;1.53;0.70;;;21.00;67.80;;;20.20;50.17;97262.22;4968933;28;20817;-77
2022/06/07 10:05:57;;;;;;;1.10;0.60;;;20.90;66.10;;;20.28;50.76;97260.63;4968681;28;20917;-75
2022/06/07 10:08:40;;;;;;;1.75;0.68;;;20.90;67.60;;;20.65;51.69;97260.00;4968751;28;20403;-76
2022/06/07 10:11:15;;;;;;;1.00;0.65;;;21.10;69.10;;;21.12;52.10;97242.00;4968850;28;20404;-75
2022/06/07 10:14:08;;;;;;;2.85;1.05;;;21.60;69.50;;;21.43;47.35;97235.53;4968887;28;20436;-76
2022/06/07 10:16:51;;;;;;;1.00;0.60;;;22.00;62.70;;;21.68;45.91;97240.00;4968511;28;20442;-75
2022/06/07 10:19:32;;;;;;;0.70;0.57;;;22.10;61.40;;;21.96;46.97;97240.31;4968455;28;20400;-74
2022/06/07 10:22:34;;;;;;;0.90;0.70;;;22.50;62.20;;;22.16;45.04;97234.19;4968740;28;20428;-75
2022/06/07 10:25:11;;;;;;;2.13;0.60;;;22.70;60.60;;;22.18;45.77;97237.31;4968787;28;20941;-75
2022/06/07 10:27:50;;;;;;;2.40;0.70;;;22.70;60.60;;;22.25;47.19;97237.56;4951398;28;20411;-76
2022/06/07 10:30:24;;;;;;;0.43;0.40;;;22.80;62.70;;;22.23;47.43;97239.81;4968226;28;20422;-75
2022/06/07 10:33:40;;;;;;;1.15;0.60;;;22.80;63.20;;;22.24;46.98;97240.63;4951273;28;20416;-75
2022/06/07 10:36:29;;;;;;;1.85;0.57;;;22.70;62.60;;;22.25;47.78;97237.56;4968512;28;20499;-74
2022/06/07 10:39:13;;;;;;;1.30;0.60;;;22.70;62.80;;;22.23;48.43;97233.63;4968161;28;20827;-75
2022/06/07 10:41:52;;;;;;;1.65;0.70;;;22.80;64.10;;;22.15;47.60;97243.38;4968375;28;20440;-75
2022/06/07 10:44:30;;;;;;;1.35;0.60;;;22.70;63.50;;;22.12;48.50;97232.44;4968546;28;20457;-75